Tanabi, Brazil
Current Conditions -  °F | °C
As of 2:00 AM on Monday 24 Nov 2014 (Local Time) from SBSR Reporting Station
Clear Clear  
Wind Chill: 73°   Ceiling: Unl
Heat Index: 73°   Visibility: 6mi
Dew Point: 68°   Wind: 6mph
Humidity: 83%   Direction: 90°E
Pressure: 29.94"   Gusts: NA
Location:  20.63°S, 49.65°W
Report Text: SBSR 240400Z 09005KT CAVOK 23/20 Q1014
Loading
Personal Weather Stations






























Interactive Weather Map New forecast layout! Learn more

10-Day Weather Forecast

Advertisements
Track Severe Weather on mobile